• Join FlightAware (Why Join?)
  • Login
  • US Flag 
03:35AM EDT


 

Airport Tracker/Info


-or-


 

Live Flight TrackerFlight Track Log ✈ SWA193 ✈ 17-Apr-2013 ✈ KFLL - KISP

Flight Track Log - Related Links

Times and Time Zones

All times are in EDT time to prevent confusion due to time zone crossing. See the SWA193 flight status page for this flight to view local times or setup timezone preferences in your user account.

Time Position Orientation Groundspeed Altitude Reporting Facility
EDT Latitude Longitude Course Direction KTS MPH feet Rate Location/Type
07:38AM 26.0750 -80.1389 89° East 148 170 1,000  Level Miami Center
07:38AM 26.0758 -80.1019 89° East 175 201 2,300 2,160 Climbing Miami Center
07:39AM 26.0825 -80.0722 76° East 200 230 3,500 2,580 Climbing Miami Center
07:40AM 26.1031 -79.9986 73° East 223 257 6,000 3,300 Climbing Miami Center
07:41AM 26.1422 -79.9233 60° Northeast 254 292 10,200 3,540 Climbing Miami Center
07:42AM 26.1817 -79.8364 63° Northeast 286 329 13,100 2,880 Climbing Miami Center
07:43AM 26.2253 -79.7403 63° Northeast 319 367 16,000 1,620 Climbing Miami Center
07:44AM 26.2622 -79.6622 62° Northeast 336 387 16,400 1,920 Climbing Miami Center
07:45AM 26.3311 -79.5572 54° Northeast 353 406 19,900 3,060 Climbing Miami Center
07:46AM 26.4117 -79.4989 33° Northeast 367 422 22,600 2,700 Climbing Miami Center
07:47AM 26.5111 -79.4267 33° Northeast 385 443 25,400 2,460 Climbing Miami Center
07:48AM 26.6083 -79.3614 31° Northeast 395 455 27,600 1,920 Climbing Miami Center
07:49AM 26.7036 -79.2914 33° Northeast 406 467 29,300 2,100 Climbing Miami Center
07:50AM 26.8092 -79.2192 31° Northeast 418 481 31,800 2,340 Climbing Miami Center
07:51AM 26.9083 -79.1489 32° Northeast 418 481 34,000 1,560 Climbing Miami Center
07:52AM 27.0119 -79.0764 32° Northeast 424 488 35,000 1,020 Climbing Miami Center
07:53AM 27.1047 -79.0058 34° Northeast 439 505 36,100 1,140 Climbing Miami Center
07:54AM 27.2144 -78.9308 31° Northeast 454 522 37,300 1,440 Climbing Miami Center
07:55AM 27.3425 -78.8861 17° North 447 514 39,000 1,440 Climbing Miami Center
07:56AM 27.4639 -78.8625 10° North 436 502 40,200 960 Climbing Miami Center
07:57AM 27.5833 -78.8389 10° North 431 496 41,000 360 Climbing Miami Center
07:58AM 27.6942 -78.8197 North 431 496 41,000  Level Miami Center
07:59AM 27.8261 -78.7961 North 431 496 41,000  Level Miami Center
08:00AM 27.9350 -78.7744 10° North 431 496 41,000  Level Miami Center
08:01AM 28.0542 -78.7553 North 431 496 41,000  Level Miami Center
08:02AM 28.1736 -78.7314 10° North 431 496 41,000  Level Miami Center
08:03AM 28.2886 -78.7122 North 425 489 41,000  Level Miami Center
08:04AM 28.4164 -78.6906 North 433 498 41,000  Level Miami Center
08:05AM 28.5272 -78.6664 11° North 423 487 41,000  Level Miami Center
08:06AM 28.6506 -78.6447 North 434 499 41,000  Level Miami Center
08:07AM 28.7697 -78.6231 North 429 494 41,000  Level Miami Center
08:08AM 28.8911 -78.5989 10° North 429 494 41,000  Level Miami Center
08:09AM 29.0189 -78.5722 10° North 420 483 41,000  Level Miami Center
08:10AM 29.1483 -78.5483 North 431 496 41,000  Level Miami Center
08:11AM 29.2633 -78.5261 10° North 430 495 41,000  Level Miami Center
08:12AM 29.3825 -78.5017 10° North 437 503 41,000  Level Miami Center
08:13AM 29.4975 -78.4819 North 416 479 41,000  Level Miami Center
08:14AM 29.6231 -78.4578 North 416 479 41,000  Level Miami Center
08:15AM 29.7128 -78.4356 12° North 431 496 41,000  Level Jacksonville Center
08:16AM 29.8417 -78.4200 North 436 502 41,000  Level Jacksonville Center
08:17AM 29.9619 -78.3978 North 436 502 41,000  Level Jacksonville Center
08:18AM 30.0733 -78.3636 15° North 436 502 41,000  Level Jacksonville Center
08:19AM 30.1978 -78.3411 North 442 509 41,000  Level Jacksonville Center
08:20AM 30.3244 -78.3231 North 442 509 41,000  Level Jacksonville Center
08:21AM 30.4467 -78.3003 North 442 509 41,000  Level Jacksonville Center
08:22AM 30.5669 -78.2753 10° North 442 509 41,000  Level Jacksonville Center
08:23AM 30.6892 -78.2525 North 440 506 41,000  Level Jacksonville Center
08:24AM 30.8094 -78.2297 North 440 506 41,000  Level Jacksonville Center
08:25AM 30.9275 -78.2019 11° North 439 505 41,000  Level Jacksonville Center
08:26AM 31.0372 -78.1772 11° North 439 505 41,000  Level Jacksonville Center
08:27AM 31.1575 -78.1567 North 439 505 41,000  Level Jacksonville Center
08:28AM 31.2756 -78.1311 10° North 434 499 41,000  Level Jacksonville Center
08:29AM 31.3958 -78.1106 North 434 499 41,000  Level Jacksonville Center
08:30AM 31.5136 -78.0825 11° North 429 494 41,000  Level Jacksonville Center
08:31AM 31.6339 -78.0592 North 429 494 41,000  Level Jacksonville Center
08:32AM 31.7517 -78.0311 11° North 429 494 41,000  Level Jacksonville Center
08:33AM 31.8719 -78.0100 North 429 494 41,000  Level Jacksonville Center
08:34AM 31.9922 -77.9864 North 429 494 41,000  Level Jacksonville Center
08:35AM 32.1103 -77.9606 11° North 429 494 41,000  Level Jacksonville Center
08:36AM 32.2325 -77.9417 North 429 494 41,000  Level Jacksonville Center
08:37AM 32.3547 -77.9153 10° North 429 494 41,000  Level Jacksonville Center
08:38AM 32.4747 -77.8917 North 429 494 41,000  Level Jacksonville Center
08:39AM 32.5947 -77.8628 11° North 435 501 41,000  Level Jacksonville Center
08:40AM 32.7128 -77.8414 North 435 501 41,000  Level Jacksonville Center
08:41AM 32.8281 -77.8003 17° North 430 495 41,000  Level Jacksonville Center
08:42AM 32.9428 -77.7492 20° North 430 495 41,000  Level Jacksonville Center
08:43AM 33.0578 -77.7006 20° North 430 495 41,000  Level Jacksonville Center
08:44AM 33.2389 -77.6275 19° North 440 506 41,000  Level Washington Center
08:45AM 33.3564 -77.5756 20° North 435 501 41,000  Level Washington Center
08:46AM 33.4742 -77.5236 20° North 435 501 41,000  Level Washington Center
08:47AM 33.5875 -77.4764 19° North 435 501 41,000  Level Washington Center
08:48AM 33.7050 -77.4267 19° North 435 501 41,000  Level Washington Center
08:49AM 33.8228 -77.3767 19° North 435 501 41,000  Level Washington Center
08:50AM 33.9381 -77.3292 19° North 435 501 41,000  Level Washington Center
08:51AM 34.0408 -77.2836 20° North 435 501 41,000  Level Washington Center
08:52AM 34.1564 -77.2358 19° North 435 501 41,000  Level Washington Center
08:53AM 34.2717 -77.1853 20° North 435 501 41,000  Level Washington Center
08:54AM 34.3872 -77.1372 19° North 435 501 41,000  Level Washington Center
08:55AM 34.5025 -77.0864 20° North 435 501 41,000  Level Washington Center
08:56AM 34.6200 -77.0356 20° North 435 501 41,000  Level Washington Center
08:57AM 34.7333 -76.9872 19° North 435 501 41,000  Level Washington Center
08:58AM 34.8467 -76.9358 20° North 430 495 41,000  Level Washington Center
08:59AM 34.9619 -76.8872 19° North 435 501 41,000  Level Washington Center
09:00AM 35.0772 -76.8358 20° North 435 501 41,000  Level Washington Center
09:01AM 35.2008 -76.7767 21° North 435 501 41,000  Level Washington Center
09:02AM 35.3161 -76.7272 19° North 435 501 41,000  Level Washington Center
09:03AM 35.4292 -76.6756 20° North 435 501 41,000  Level Washington Center
09:04AM 35.5422 -76.6233 21° North 430 495 41,000  Level Washington Center
09:05AM 35.6575 -76.5764 18° North 430 495 41,000  Level Washington Center
09:06AM 35.7728 -76.5239 20° North 430 495 41,000  Level Washington Center
09:07AM 35.8858 -76.4739 20° North 430 495 41,000  Level Washington Center
09:08AM 36.0008 -76.4214 20° North 430 495 41,000  Level Washington Center
09:09AM 36.1158 -76.3686 20° North 430 495 41,000  Level Washington Center
09:10AM 36.2331 -76.3156 20° North 430 495 41,000  Level Washington Center
09:11AM 36.3461 -76.2625 21° North 430 495 41,000  Level Washington Center
09:12AM 36.4633 -76.2092 20° North 435 501 41,000  Level Washington Center
09:13AM 36.5783 -76.1611 19° North 435 501 41,000  Level Washington Center
09:14AM 36.6806 -76.1100 22° Northeast 440 506 41,000  Level Washington Center
09:15AM 36.7956 -76.0561 21° North 434 499 41,000  Level Washington Center
09:16AM 36.9106 -76.0022 21° North 434 499 41,000  Level Washington Center
09:17AM 37.0317 -75.9508 19° North 440 506 41,000  Level Washington Center
09:18AM 37.1569 -75.8942 20° North 446 513 41,000  Level Washington Center
09:19AM 37.2614 -75.8450 21° North 446 513 41,000  Level Washington Center
09:20AM 37.3764 -75.7906 21° North 446 513 41,000  Level Washington Center
09:21AM 37.4931 -75.7383 20° North 446 513 41,000  Level Washington Center
09:22AM 37.6058 -75.6758 24° Northeast 441 507 41,000  Level Washington Center
09:23AM 37.7228 -75.6233 20° North 435 501 41,000  Level Washington Center
09:24AM 37.8394 -75.5656 21° North 435 501 41,000  Level Washington Center
09:25AM 37.9583 -75.5181 17° North 441 507 41,000  Level Washington Center
09:26AM 38.0856 -75.4572 21° North 441 507 41,000  Level Washington Center
09:27AM 38.1875 -75.3856 29° Northeast 448 516 41,000  Level Washington Center
09:28AM 38.3125 -75.3058 27° Northeast 448 516 41,000  Level Washington Center
09:29AM 38.4250 -75.2339 27° Northeast 448 516 41,000  Level Washington Center
09:30AM 38.5372 -75.1592 28° Northeast 448 516 41,000 -480 Level Washington Center
09:31AM 38.6517 -75.0919 25° Northeast 448 516 40,100 -900 Descending Washington Center
09:32AM 38.7556 -75.0006 34° Northeast 448 516 39,200 -900 Descending Washington Center
09:33AM 38.8528 -74.8881 42° Northeast 454 522 38,300 -960 Descending Washington Center
09:34AM 38.9461 -74.7908 39° Northeast 454 522 37,300 -1,800 Descending Washington Center
09:35AM 39.0389 -74.6856 41° Northeast 444 511 34,800 -2,940 Descending Washington Center
09:36AM 39.1342 -74.5800 41° Northeast 444 511 31,500 -2,820 Descending Washington Center
09:37AM 39.1650 -74.5439 42° Northeast 441 507 31,000 -2,280 Descending New York Center
09:38AM 39.2514 -74.4519 39° Northeast 452 520 28,400 -2,640 Descending New York Center
09:38AM 39.3400 -74.3492 42° Northeast 441 507 25,900 -2,520 Descending New York Center
09:39AM 39.4267 -74.2486 42° Northeast 427 491 23,500 -2,340 Descending New York Center
09:40AM 39.5128 -74.1533 40° Northeast 415 478 21,200 -1,620 Descending New York Center
09:41AM 39.5847 -74.0436 50° Northeast 402 463 20,300 -1,320 Descending New York Center
09:42AM 39.6467 -73.9117 59° Northeast 394 453 18,600 -1,500 Descending New York Center
09:44AM 39.6767 -73.7969 71° East 389 448 17,300 -1,380 Descending New York Center
09:44AM 39.7089 -73.6769 71° East 368 423 15,900 -1,200 Descending New York Center
09:45AM 39.7778 -73.5908 44° Northeast 340 391 15,000 -480 Descending New York Center
09:47AM 39.8525 -73.5128 39° Northeast 335 386 15,000  Level New York Center
09:49AM 40.0297 -73.3261 39° Northeast 339 390 15,000 -480 Level Boston Center
09:50AM 40.1053 -73.2486 38° Northeast 339 390 13,600 -1,800 Descending Boston Center
09:51AM 40.1786 -73.1706 39° Northeast 339 390 11,500 -2,220 Descending Boston Center
09:52AM 40.2458 -73.0953 41° Northeast 333 383 9,300 -1,260 Descending Boston Center
09:53AM 40.3128 -73.0253 39° Northeast 328 377 9,000 -900 Descending Boston Center
09:55AM 40.4500 -72.8833 38° Northeast 257 296 6,600 -1,380 Descending New York TRACON
09:56AM 40.5000 -72.8333 37° Northeast 269 310 5,000 -1,260 Descending New York TRACON
09:57AM 40.5500 -72.8667 333° Northwest 234 269 4,100 -780 Descending New York TRACON
09:58AM 40.5833 -72.9333 303° West 224 258 3,400 -540 Descending New York TRACON
09:59AM 40.6000 -73.0167 285° West 215 247 3,100 -180 Descending New York TRACON
10:00AM 40.6333 -73.0833 303° West 210 242 3,100 -420 Level New York TRACON
10:01AM 40.6667 -73.1333 311° West 204 235 2,400 -480 Descending New York TRACON
10:02AM 40.7000 -73.1833 311° West 174 200 2,200 -300 Descending New York TRACON
10:03AM 40.7333 -73.1833 360° North 148 170 1,800 -540 Descending New York TRACON
10:04AM 40.7500 -73.1500 57° Northeast 127 146 1,100 -720 Descending New York TRACON
10:05AM 40.7833 -73.1167 37° Northeast 122 140 400 -660 Descending New York TRACON